首页
METAR-TAF:

METAR-TAF

机场 :

新山一國際機場

胡志明, 越南

纬度: 10-49N, 经度: 106-40E, 海拔: 19米

当前天气观测

该预报发布于46分钟前的23:30 UTC
风速3节,风向多变
温度 26°C
湿度 94%
气压 1011 hPa
能見度: 8000
少量云层高于1500英尺
散云层高于4000英尺

METAR: VVTS 172330Z VRB03KT 8000 FEW015 SCT040 26/25 Q1011 NOSIG

时间: 07:16 (00:16 UTC)

预报

该预报发布于1小时和16分钟前的23:00 UTC
预报有效从18日的 00点(UTC)到 19日的 06点(UTC)
风速6节,风向西转西北
能见度10公里或以上
散云层高于1700英尺
短暂存在
从 18日的 02点(UTC)到 18日的 07点(UTC)
能見度: 5000
多云层高于1500英尺
少量云层高于1700英尺, 积雨云.
阵雨
短暂存在
从 18日的 07点(UTC)到 18日的 12点(UTC)
风速16节,风向西,有时为28节阵风
能見度: 1500
多云层高于1000英尺
散云层高于1300英尺, 积雨云.
雷暴, 大雨

TAF: VVTS 172300Z 1800/1906 30006KT 9999 SCT017 TEMPO 1802/1807 5000 SHRA BKN015 FEW017CB TEMPO 1807/1812 26016G28KT 1500 +TSRA BKN010 SCT013CB

超过4000个机场的气象观测和天气预报(METAR&TAF报告)。

可查询的气象台以黄色和红色小点在地图上表示。

将鼠标移到小点上方,可查看气象台名称。

然后点击查看天气观测和预报。

如需切换地图:点击带黑十字的绿色按钮放大地图;点击带横线的绿色按钮缩小地图;或者点击绿色箭头查看邻近地区的地图。


METAR-TAF: